Gerd Maersk — OYGM2 — position and weather

sailwx.info

Track history (hours):
 
Tides and Currents Weather Stations Pressure Air Temp Water Temp Dewpoint Dewpoint Depression Visibility Wind Speed Wind Dir Waves Ship Positions

Gerd Maersk

Last reported at 2016-May-21 22:09 UTC. Time now 2016-May-28 22:04 UTC.
Position N 38°09' W 124°03'.

Length 367 m; draft 12.4 m.

Type: Cargo ship. MMSI: 220415000.

Date/timePositionNaut miles runAvg speedWind from/ knotsBaromVisibWave heightAir tempDewpointWater temp
2016-May-21 22:09N 38°09' W 124°03'711.6
2016-May-21 21:33N 38°09' W 123°55'1211.8
2016-May-21 20:33N 38°09' W 123°39'1111.5
2016-May-21 19:33N 38°10' W 123°25'1111.0
2016-May-21 18:33N 38°03' W 123°14'1211.6
2016-May-21 17:33N 37°56' W 123°02'1212.0
2016-May-21 16:33N 37°50' W 122°49'1010.0
2016-May-21 15:33N 37°46' W 122°37'1211.8
2016-May-21 14:33N 37°48' W 122°23'3 3.1
2016-May-21 13:33N 37°48' W 122°19'0 0.0
2016-May-21 12:33N 37°48' W 122°19'0 0.0
2016-May-21 11:33N 37°48' W 122°19'0 0.0
2016-May-21 10:33N 37°48' W 122°19'0 0.0
2016-May-21 09:33N 37°48' W 122°19'0 0.0
2016-May-21 08:33N 37°48' W 122°19'0 0.0
2016-May-21 07:33N 37°48' W 122°19'0 0.0
2016-May-21 06:33N 37°48' W 122°19'0 0.0
2016-May-21 05:33N 37°48' W 122°19'0 0.0
2016-May-21 04:27N 37°48' W 122°19'0 0.0
2016-May-21 03:33N 37°48' W 122°19'0 0.0
2016-May-21 02:33N 37°48' W 122°19'0 0.0
2016-May-21 01:33N 37°48' W 122°19'0 0.0
2016-May-21 00:30N 37°48' W 122°19'0 0.0
2016-May-20 23:33N 37°48' W 122°19'0 0.0
2016-May-20 22:33N 37°48' W 122°19'0 0.0
2016-May-20 21:33N 37°48' W 122°19'1 0.7
2016-May-20 20:33N 37°48' W 122°18'6 6.3
2016-May-20 19:33N 37°49' W 122°26'1312.6
2016-May-20 18:33N 37°45' W 122°41'9 8.9
2016-May-20 17:33N 37°36' W 122°40'10 9.6
2016-May-20 16:33N 37°26' W 122°40'1010.1
2016-May-20 15:33N 37°16' W 122°39'1312.6
2016-May-20 14:33N 37°04' W 122°35'2612.9
2016-May-20 12:33N 36°40' W 122°23'1313.0
2016-May-20 11:33N 36°28' W 122°17'1313.3
2016-May-20 10:33N 36°16' W 122°10'1313.4
2016-May-20 09:33N 36°04' W 122°02'1313.5
2016-May-20 08:33N 35°52' W 121°54'1413.6
2016-May-20 07:33N 35°41' W 121°46'18612.1
2016-May-19 16:13N 33°49' W 118°44'811.7
2016-May-19 15:31N 33°45' W 118°35'1411.3
2016-May-19 14:17N 33°38' W 118°21'7 9.7
2016-May-19 13:33N 33°38' W 118°12'7 6.8
2016-May-19 12:33N 33°45' W 118°13'1 1.1
2016-May-19 11:19N 33°45' W 118°14'0 0.0
2016-May-19 09:31N 33°45' W 118°14'0 0.0
2016-May-19 08:31N 33°45' W 118°14'  
2016-May-14 21:33N 33°45' W 118°13'10 6.5
2016-May-14 20:05N 33°36' W 118°17'  
Track history (hours):
 
Tides and Currents Weather Stations Pressure Air Temp Water Temp Dewpoint Dewpoint Depression Visibility Wind Speed Wind Dir Waves Ship Positions

Gerd Maersk

Last reported at 2016-May-21 22:09 UTC. Time now 2016-May-28 22:04 UTC.
Position N 38°09' W 124°03'.

Length 367 m; draft 12.4 m.

Type: Cargo ship. MMSI: 220415000.

Date/timePositionNaut miles runAvg speedWind from/ knotsBaromVisibWave heightAir tempDewpointWater temp
2016-May-21 22:09N 38°09' W 124°03'711.6
2016-May-21 21:33N 38°09' W 123°55'1211.8
2016-May-21 20:33N 38°09' W 123°39'1111.5
2016-May-21 19:33N 38°10' W 123°25'1111.0
2016-May-21 18:33N 38°03' W 123°14'1211.6
2016-May-21 17:33N 37°56' W 123°02'1212.0
2016-May-21 16:33N 37°50' W 122°49'1010.0
2016-May-21 15:33N 37°46' W 122°37'1211.8
2016-May-21 14:33N 37°48' W 122°23'3 3.1
2016-May-21 13:33N 37°48' W 122°19'0 0.0
2016-May-21 12:33N 37°48' W 122°19'0 0.0
2016-May-21 11:33N 37°48' W 122°19'0 0.0
2016-May-21 10:33N 37°48' W 122°19'0 0.0
2016-May-21 09:33N 37°48' W 122°19'0 0.0
2016-May-21 08:33N 37°48' W 122°19'0 0.0
2016-May-21 07:33N 37°48' W 122°19'0 0.0
2016-May-21 06:33N 37°48' W 122°19'0 0.0
2016-May-21 05:33N 37°48' W 122°19'0 0.0
2016-May-21 04:27N 37°48' W 122°19'0 0.0
2016-May-21 03:33N 37°48' W 122°19'0 0.0
2016-May-21 02:33N 37°48' W 122°19'0 0.0
2016-May-21 01:33N 37°48' W 122°19'0 0.0
2016-May-21 00:30N 37°48' W 122°19'0 0.0
2016-May-20 23:33N 37°48' W 122°19'0 0.0
2016-May-20 22:33N 37°48' W 122°19'0 0.0
2016-May-20 21:33N 37°48' W 122°19'1 0.7
2016-May-20 20:33N 37°48' W 122°18'6 6.3
2016-May-20 19:33N 37°49' W 122°26'1312.6
2016-May-20 18:33N 37°45' W 122°41'9 8.9
2016-May-20 17:33N 37°36' W 122°40'10 9.6
2016-May-20 16:33N 37°26' W 122°40'1010.1
2016-May-20 15:33N 37°16' W 122°39'1312.6
2016-May-20 14:33N 37°04' W 122°35'2612.9
2016-May-20 12:33N 36°40' W 122°23'1313.0
2016-May-20 11:33N 36°28' W 122°17'1313.3
2016-May-20 10:33N 36°16' W 122°10'1313.4
2016-May-20 09:33N 36°04' W 122°02'1313.5
2016-May-20 08:33N 35°52' W 121°54'1413.6
2016-May-20 07:33N 35°41' W 121°46'18612.1
2016-May-19 16:13N 33°49' W 118°44'811.7
2016-May-19 15:31N 33°45' W 118°35'1411.3
2016-May-19 14:17N 33°38' W 118°21'7 9.7
2016-May-19 13:33N 33°38' W 118°12'7 6.8
2016-May-19 12:33N 33°45' W 118°13'1 1.1
2016-May-19 11:19N 33°45' W 118°14'0 0.0
2016-May-19 09:31N 33°45' W 118°14'0 0.0
2016-May-19 08:31N 33°45' W 118°14'  
2016-May-14 21:33N 33°45' W 118°13'10 6.5
2016-May-14 20:05N 33°36' W 118°17'  

Dump ship's entire track history